Terminal Aerodrome Forecast
Issued by NWS

Home | Current Version | Previous Version | Text Only | Print | Product List | Glossary On
Versions: 1 2 3 4 5 6 7 8 9 10 11 12
853
FTPA31 PHFO 130520
TAFHKO
TAF
PHKO 130520Z 1306/1406 VRB05KT P6SM FEW050
     FM130900 10005KT P6SM SKC
     FM132000 23009KT P6SM FEW050
      AMD NOT SKED=

USA.gov is the U.S. government's official web portal to all federal, state and local government web resources and services.